sensor_id;sensor_type;location;lat;lon;timestamp;pressure;altitude;pressure_sealevel;temperature;humidity
72921;BME280;61064;51.654;5.476;2022-07-05T00:02:05;102148.50;;;16.58;63.87
72921;BME280;61064;51.654;5.476;2022-07-05T00:04:31;102147.59;;;16.57;63.95
72921;BME280;61064;51.654;5.476;2022-07-05T00:06:56;102147.56;;;16.56;64.01
72921;BME280;61064;51.654;5.476;2022-07-05T00:09:41;102146.69;;;16.57;63.88
72921;BME280;61064;51.654;5.476;2022-07-05T00:12:07;102129.69;;;16.53;63.93
72921;BME280;61064;51.654;5.476;2022-07-05T00:14:32;102135.06;;;16.53;63.99
72921;BME280;61064;51.654;5.476;2022-07-05T00:16:58;102145.81;;;16.58;64.04
72921;BME280;61064;51.654;5.476;2022-07-05T00:19:26;102136.81;;;16.51;64.32
72921;BME280;61064;51.654;5.476;2022-07-05T00:21:51;102125.19;;;16.49;64.28
72921;BME280;61064;51.654;5.476;2022-07-05T00:24:17;102126.06;;;16.42;64.23
72921;BME280;61064;51.654;5.476;2022-07-05T00:26:42;102124.25;;;16.44;64.39
72921;BME280;61064;51.654;5.476;2022-07-05T00:29:07;102122.50;;;16.43;64.57
72921;BME280;61064;51.654;5.476;2022-07-05T00:31:33;102136.84;;;16.48;64.67
72921;BME280;61064;51.654;5.476;2022-07-05T00:33:58;102127.84;;;16.37;64.52
72921;BME280;61064;51.654;5.476;2022-07-05T00:36:24;102123.38;;;16.38;64.53
72921;BME280;61064;51.654;5.476;2022-07-05T00:38:49;102135.00;;;16.37;64.83
72921;BME280;61064;51.654;5.476;2022-07-05T00:41:14;102121.53;;;16.21;64.83
72921;BME280;61064;51.654;5.476;2022-07-05T00:43:57;102126.00;;;16.24;64.80
72921;BME280;61064;51.654;5.476;2022-07-05T00:46:24;102136.75;;;16.30;64.82
72921;BME280;61064;51.654;5.476;2022-07-05T00:48:49;102128.69;;;16.26;65.01
72921;BME280;61064;51.654;5.476;2022-07-05T00:51:14;102106.25;;;16.11;64.98
72921;BME280;61064;51.654;5.476;2022-07-05T00:53:41;102117.03;;;16.16;65.01
72921;BME280;61064;51.654;5.476;2022-07-05T00:56:09;102120.59;;;16.15;65.20
72921;BME280;61064;51.654;5.476;2022-07-05T00:58:34;102120.56;;;16.12;65.38
72921;BME280;61064;51.654;5.476;2022-07-05T01:01:02;102133.09;;;16.11;65.48
72921;BME280;61064;51.654;5.476;2022-07-05T01:03:28;102129.47;;;16.00;65.59
72921;BME280;61064;51.654;5.476;2022-07-05T01:05:55;102141.13;;;15.98;65.78
72921;BME280;61064;51.654;5.476;2022-07-05T01:08:22;102141.09;;;15.93;65.91
72921;BME280;61064;51.654;5.476;2022-07-05T01:10:49;102132.09;;;15.82;65.95
72921;BME280;61064;51.654;5.476;2022-07-05T01:13:14;102125.75;;;15.72;66.05
72921;BME280;61064;51.654;5.476;2022-07-05T01:15:40;102109.56;;;15.54;66.51
72921;BME280;61064;51.654;5.476;2022-07-05T01:18:06;102123.88;;;15.56;66.69
72921;BME280;61064;51.654;5.476;2022-07-05T01:20:32;102136.31;;;15.51;67.36
72921;BME280;61064;51.654;5.476;2022-07-05T01:22:59;102113.81;;;15.32;67.62
72921;BME280;61064;51.654;5.476;2022-07-05T01:25:28;102122.78;;;15.31;67.65
72921;BME280;61064;51.654;5.476;2022-07-05T01:27:54;102120.94;;;15.24;67.97
72921;BME280;61064;51.654;5.476;2022-07-05T01:30:20;102128.97;;;15.24;68.15
72921;BME280;61064;51.654;5.476;2022-07-05T01:32:46;102051.81;;;14.85;68.27
72921;BME280;61064;51.654;5.476;2022-07-05T01:35:13;102088.59;;;15.03;68.03
72921;BME280;61064;51.654;5.476;2022-07-05T01:37:39;102118.22;;;15.21;68.36
72921;BME280;61064;51.654;5.476;2022-07-05T01:40:05;102133.47;;;15.25;68.48
72921;BME280;61064;51.654;5.476;2022-07-05T01:42:31;102096.63;;;15.02;68.59
72921;BME280;61064;51.654;5.476;2022-07-05T01:44:57;102099.31;;;15.05;68.55
72921;BME280;61064;51.654;5.476;2022-07-05T01:47:22;102116.41;;;15.17;68.46
72921;BME280;61064;51.654;5.476;2022-07-05T01:49:51;102090.41;;;15.04;68.52
72921;BME280;61064;51.654;5.476;2022-07-05T01:52:20;102093.97;;;15.03;68.52
72921;BME280;61064;51.654;5.476;2022-07-05T01:54:46;102098.41;;;14.98;68.46
72921;BME280;61064;51.654;5.476;2022-07-05T01:57:12;102123.50;;;15.11;68.57
72921;BME280;61064;51.654;5.476;2022-07-05T01:59:37;102075.91;;;14.84;68.68
72921;BME280;61064;51.654;5.476;2022-07-05T02:02:04;102111.84;;;15.07;68.68
72921;BME280;61064;51.654;5.476;2022-07-05T02:04:31;102105.59;;;15.04;68.67
72921;BME280;61064;51.654;5.476;2022-07-05T02:06:57;102104.66;;;15.05;68.61
72921;BME280;61064;51.654;5.476;2022-07-05T02:09:23;102124.44;;;15.14;68.65
72921;BME280;61064;51.654;5.476;2022-07-05T02:11:48;102124.38;;;15.11;68.67
72921;BME280;61064;51.654;5.476;2022-07-05T02:14:14;102117.25;;;15.09;68.68
72921;BME280;61064;51.654;5.476;2022-07-05T02:16:39;102117.19;;;15.06;68.69
72921;BME280;61064;51.654;5.476;2022-07-05T02:19:05;102138.63;;;15.06;68.83
72921;BME280;61064;51.654;5.476;2022-07-05T02:21:30;102120.63;;;14.89;68.74
72921;BME280;61064;51.654;5.476;2022-07-05T02:23:56;102114.31;;;14.81;68.98
72921;BME280;61064;51.654;5.476;2022-07-05T02:26:21;102110.72;;;14.82;68.93
72921;BME280;61064;51.654;5.476;2022-07-05T02:28:47;102115.22;;;14.83;68.86
72921;BME280;61064;51.654;5.476;2022-07-05T02:31:13;102139.44;;;14.92;69.07
72921;BME280;61064;51.654;5.476;2022-07-05T02:33:40;102097.19;;;14.64;69.08
72921;BME280;61064;51.654;5.476;2022-07-05T02:36:10;102123.13;;;14.71;69.32
72921;BME280;61064;51.654;5.476;2022-07-05T02:38:36;102134.81;;;14.78;69.34
72921;BME280;61064;51.654;5.476;2022-07-05T02:41:10;102129.41;;;14.70;69.53
72921;BME280;61064;51.654;5.476;2022-07-05T02:43:36;102143.63;;;14.66;69.58
72921;BME280;61064;51.654;5.476;2022-07-05T02:46:03;102142.75;;;14.67;69.91
72921;BME280;61064;51.654;5.476;2022-07-05T02:48:29;102142.75;;;14.69;69.92
72921;BME280;61064;51.654;5.476;2022-07-05T02:50:54;102152.59;;;14.70;69.99
72921;BME280;61064;51.654;5.476;2022-07-05T02:53:20;102153.53;;;14.73;69.87
72921;BME280;61064;51.654;5.476;2022-07-05T02:55:45;102149.06;;;14.71;69.93
72921;BME280;61064;51.654;5.476;2022-07-05T02:58:11;102145.47;;;14.70;69.99
72921;BME280;61064;51.654;5.476;2022-07-05T03:00:36;102143.66;;;14.69;69.98
72921;BME280;61064;51.654;5.476;2022-07-05T03:03:02;102160.66;;;14.73;69.95
72921;BME280;61064;51.654;5.476;2022-07-05T03:05:28;102147.25;;;14.71;69.89
72921;BME280;61064;51.654;5.476;2022-07-05T03:07:53;102156.19;;;14.72;69.88
72921;BME280;61064;51.654;5.476;2022-07-05T03:10:19;102152.59;;;14.71;70.05
72921;BME280;61064;51.654;5.476;2022-07-05T03:12:44;102148.06;;;14.66;70.06
72921;BME280;61064;51.654;5.476;2022-07-05T03:15:09;102154.31;;;14.63;70.05
72921;BME280;61064;51.654;5.476;2022-07-05T03:17:35;102159.66;;;14.62;70.23
72921;BME280;61064;51.654;5.476;2022-07-05T03:20:00;102150.63;;;14.55;70.28
72921;BME280;61064;51.654;5.476;2022-07-05T03:22:26;102162.25;;;14.52;70.29
72921;BME280;61064;51.654;5.476;2022-07-05T03:24:51;102168.50;;;14.53;70.16
72921;BME280;61064;51.654;5.476;2022-07-05T03:27:16;102159.50;;;14.48;70.63
72921;BME280;61064;51.654;5.476;2022-07-05T03:29:42;102162.13;;;14.45;70.99
72921;BME280;61064;51.654;5.476;2022-07-05T03:32:07;102166.59;;;14.43;71.09
72921;BME280;61064;51.654;5.476;2022-07-05T03:34:32;102149.56;;;14.39;71.26
72921;BME280;61064;51.654;5.476;2022-07-05T03:36:58;102151.41;;;14.43;71.23
72921;BME280;61064;51.654;5.476;2022-07-05T03:39:23;102160.38;;;14.47;71.46
72921;BME280;61064;51.654;5.476;2022-07-05T03:41:49;102150.53;;;14.43;71.47
72921;BME280;61064;51.654;5.476;2022-07-05T03:44:14;102166.66;;;14.50;71.76
72921;BME280;61064;51.654;5.476;2022-07-05T03:46:40;102179.25;;;14.57;71.65
72921;BME280;61064;51.654;5.476;2022-07-05T03:49:05;102166.72;;;14.55;71.55
72921;BME280;61064;51.654;5.476;2022-07-05T03:51:30;102169.47;;;14.61;71.69
72921;BME280;61064;51.654;5.476;2022-07-05T03:53:56;102178.41;;;14.63;71.76
72921;BME280;61064;51.654;5.476;2022-07-05T03:56:21;102187.34;;;14.64;71.85
72921;BME280;61064;51.654;5.476;2022-07-05T03:58:49;102163.22;;;14.59;71.85
72921;BME280;61064;51.654;5.476;2022-07-05T04:01:16;102172.19;;;14.66;71.94
72921;BME280;61064;51.654;5.476;2022-07-05T04:03:41;102179.34;;;14.67;72.04
72921;BME280;61064;51.654;5.476;2022-07-05T04:06:10;102167.72;;;14.63;72.25
72921;BME280;61064;51.654;5.476;2022-07-05T04:08:36;102170.47;;;14.69;72.19
72921;BME280;61064;51.654;5.476;2022-07-05T04:11:01;102171.34;;;14.68;72.14
72921;BME280;61064;51.654;5.476;2022-07-05T04:13:27;102178.50;;;14.69;72.14
72921;BME280;61064;51.654;5.476;2022-07-05T04:15:52;102176.72;;;14.70;72.24
72921;BME280;61064;51.654;5.476;2022-07-05T04:18:20;102179.44;;;14.74;72.34
72921;BME280;61064;51.654;5.476;2022-07-05T04:20:46;102196.50;;;14.84;72.06
72921;BME280;61064;51.654;5.476;2022-07-05T04:23:11;102191.19;;;14.88;72.11
72921;BME280;61064;51.654;5.476;2022-07-05T04:25:36;102188.56;;;14.91;72.00
72921;BME280;61064;51.654;5.476;2022-07-05T04:28:02;102186.78;;;14.92;72.05
72921;BME280;61064;51.654;5.476;2022-07-05T04:30:28;102162.50;;;14.75;72.19
72921;BME280;61064;51.654;5.476;2022-07-05T04:32:53;102186.78;;;14.92;72.22
72921;BME280;61064;51.654;5.476;2022-07-05T04:35:19;102187.66;;;14.94;72.27
72921;BME280;61064;51.654;5.476;2022-07-05T04:37:44;102193.13;;;15.03;72.03
72921;BME280;61064;51.654;5.476;2022-07-05T04:40:11;102186.88;;;15.06;72.27
72921;BME280;61064;51.654;5.476;2022-07-05T04:42:37;102185.13;;;15.08;72.22
72921;BME280;61064;51.654;5.476;2022-07-05T04:45:03;102190.56;;;15.15;72.07
72921;BME280;61064;51.654;5.476;2022-07-05T04:47:29;102178.06;;;15.17;71.98
72921;BME280;61064;51.654;5.476;2022-07-05T04:49:55;102179.03;;;15.24;72.07
72921;BME280;61064;51.654;5.476;2022-07-05T04:52:22;102180.88;;;15.34;71.97
72921;BME280;61064;51.654;5.476;2022-07-05T04:54:47;102196.13;;;15.39;71.79
72921;BME280;61064;51.654;5.476;2022-07-05T04:57:13;102199.75;;;15.46;71.53
72921;BME280;61064;51.654;5.476;2022-07-05T04:59:38;102190.84;;;15.50;71.43
72921;BME280;61064;51.654;5.476;2022-07-05T05:02:04;102188.25;;;15.53;71.35
72921;BME280;61064;51.654;5.476;2022-07-05T05:04:29;102181.09;;;15.57;71.22
72921;BME280;61064;51.654;5.476;2022-07-05T05:06:54;102171.28;;;15.59;71.17
72921;BME280;61064;51.654;5.476;2022-07-05T05:09:20;102173.13;;;15.67;71.03
72921;BME280;61064;51.654;5.476;2022-07-05T05:11:46;102180.34;;;15.74;70.92
72921;BME280;61064;51.654;5.476;2022-07-05T05:14:11;102173.22;;;15.79;70.81
72921;BME280;61064;51.654;5.476;2022-07-05T05:16:37;102191.16;;;15.90;70.66
72921;BME280;61064;51.654;5.476;2022-07-05T05:19:02;102185.81;;;15.91;70.65
72921;BME280;61064;51.654;5.476;2022-07-05T05:21:27;102182.25;;;15.94;70.87
72921;BME280;61064;51.654;5.476;2022-07-05T05:23:53;102183.13;;;15.94;71.28
72921;BME280;61064;51.654;5.476;2022-07-05T05:26:18;102199.31;;;16.03;71.23
72921;BME280;61064;51.654;5.476;2022-07-05T05:28:43;102194.84;;;16.04;71.49
72921;BME280;61064;51.654;5.476;2022-07-05T05:31:09;102194.88;;;16.13;71.29
72921;BME280;61064;51.654;5.476;2022-07-05T05:33:34;102207.47;;;16.21;70.96
72921;BME280;61064;51.654;5.476;2022-07-05T05:36:00;102205.69;;;16.27;70.78
72921;BME280;61064;51.654;5.476;2022-07-05T05:38:26;102208.41;;;16.31;70.64
72921;BME280;61064;51.654;5.476;2022-07-05T05:40:51;102205.72;;;16.34;70.65
72921;BME280;61064;51.654;5.476;2022-07-05T05:43:17;102210.22;;;16.40;70.52
72921;BME280;61064;51.654;5.476;2022-07-05T05:45:42;102216.50;;;16.46;70.62
72921;BME280;61064;51.654;5.476;2022-07-05T05:48:07;102213.84;;;16.51;70.36
72921;BME280;61064;51.654;5.476;2022-07-05T05:50:35;102221.09;;;16.59;70.47
72921;BME280;61064;51.654;5.476;2022-07-05T05:53:02;102212.16;;;16.60;70.08
72921;BME280;61064;51.654;5.476;2022-07-05T05:55:29;102215.72;;;16.62;69.80
72921;BME280;61064;51.654;5.476;2022-07-05T05:57:55;102216.66;;;16.66;69.88
72921;BME280;61064;51.654;5.476;2022-07-05T06:00:22;102221.13;;;16.69;69.74
72921;BME280;61064;51.654;5.476;2022-07-05T06:02:49;102223.81;;;16.79;69.70
72921;BME280;61064;51.654;5.476;2022-07-05T06:05:16;102214.88;;;16.80;69.52
72921;BME280;61064;51.654;5.476;2022-07-05T06:07:52;102225.66;;;16.86;69.27
72921;BME280;61064;51.654;5.476;2022-07-05T06:10:27;102228.38;;;16.94;69.34
72921;BME280;61064;51.654;5.476;2022-07-05T06:12:53;102227.47;;;17.01;69.11
72921;BME280;61064;51.654;5.476;2022-07-05T06:15:20;102230.19;;;17.04;69.12
72921;BME280;61064;51.654;5.476;2022-07-05T06:17:46;102231.06;;;17.08;69.10
72921;BME280;61064;51.654;5.476;2022-07-05T06:20:17;102232.88;;;17.13;69.06
72921;BME280;61064;51.654;5.476;2022-07-05T06:22:43;102236.47;;;17.24;69.04
72921;BME280;61064;51.654;5.476;2022-07-05T06:25:09;102232.00;;;17.29;68.92
72921;BME280;61064;51.654;5.476;2022-07-05T06:27:42;102229.31;;;17.37;68.56
72921;BME280;61064;51.654;5.476;2022-07-05T06:30:09;102228.44;;;17.44;68.53
72921;BME280;61064;51.654;5.476;2022-07-05T06:32:35;102238.28;;;17.53;68.16
72921;BME280;61064;51.654;5.476;2022-07-05T06:35:00;102245.50;;;17.63;68.06
72921;BME280;61064;51.654;5.476;2022-07-05T06:37:26;102239.22;;;17.71;67.61
72921;BME280;61064;51.654;5.476;2022-07-05T06:39:51;102238.31;;;17.80;67.57
72921;BME280;61064;51.654;5.476;2022-07-05T06:42:16;102232.94;;;17.83;67.52
72921;BME280;61064;51.654;5.476;2022-07-05T06:44:42;102241.88;;;17.97;67.27
72921;BME280;61064;51.654;5.476;2022-07-05T06:47:09;102232.00;;;18.04;67.27
72921;BME280;61064;51.654;5.476;2022-07-05T06:49:34;102240.94;;;18.21;67.08
72921;BME280;61064;51.654;5.476;2022-07-05T06:52:00;102240.00;;;18.31;66.65
72921;BME280;61064;51.654;5.476;2022-07-05T06:54:25;102237.25;;;18.43;66.33
72921;BME280;61064;51.654;5.476;2022-07-05T06:56:50;102232.75;;;18.54;66.00
72921;BME280;61064;51.654;5.476;2022-07-05T06:59:16;102226.41;;;18.64;65.82
72921;BME280;61064;51.654;5.476;2022-07-05T07:01:41;102240.66;;;18.91;65.37
72921;BME280;61064;51.654;5.476;2022-07-05T07:04:06;102245.94;;;19.07;64.73
72921;BME280;61064;51.654;5.476;2022-07-05T07:06:32;102251.22;;;19.23;64.41
72921;BME280;61064;51.654;5.476;2022-07-05T07:08:57;102243.94;;;19.34;64.17
72921;BME280;61064;51.654;5.476;2022-07-05T07:11:42;102251.94;;;19.54;63.86
72921;BME280;61064;51.654;5.476;2022-07-05T07:14:07;102240.13;;;19.68;63.54
72921;BME280;61064;51.654;5.476;2022-07-05T07:16:32;102246.25;;;19.88;63.06
72921;BME280;61064;51.654;5.476;2022-07-05T07:18:58;102241.63;;;20.00;62.59
72921;BME280;61064;51.654;5.476;2022-07-05T07:21:23;102245.97;;;20.13;62.23
72921;BME280;61064;51.654;5.476;2022-07-05T07:23:49;102239.66;;;20.14;61.87
72921;BME280;61064;51.654;5.476;2022-07-05T07:26:14;102245.91;;;20.22;61.81
72921;BME280;61064;51.654;5.476;2022-07-05T07:28:40;102249.44;;;20.27;61.68
72921;BME280;61064;51.654;5.476;2022-07-05T07:31:06;102256.66;;;20.28;61.40
72921;BME280;61064;51.654;5.476;2022-07-05T07:33:31;102254.81;;;20.28;61.31
72921;BME280;61064;51.654;5.476;2022-07-05T07:35:58;102255.69;;;20.30;61.35
72921;BME280;61064;51.654;5.476;2022-07-05T07:38:23;102252.13;;;20.33;61.46
72921;BME280;61064;51.654;5.476;2022-07-05T07:40:49;102252.88;;;20.44;61.61
72921;BME280;61064;51.654;5.476;2022-07-05T07:43:15;102252.75;;;20.55;61.58
72921;BME280;61064;51.654;5.476;2022-07-05T07:45:40;102257.13;;;20.66;61.34
72921;BME280;61064;51.654;5.476;2022-07-05T07:48:06;102256.91;;;20.82;61.15
72921;BME280;61064;51.654;5.476;2022-07-05T07:50:31;102255.94;;;20.86;60.92
72921;BME280;61064;51.654;5.476;2022-07-05T07:52:56;102249.59;;;20.88;60.86
72921;BME280;61064;51.654;5.476;2022-07-05T07:55:22;102247.78;;;20.89;61.07
72921;BME280;61064;51.654;5.476;2022-07-05T07:57:47;102259.38;;;20.97;61.12
72921;BME280;61064;51.654;5.476;2022-07-05T08:00:13;102260.25;;;21.00;61.07
72921;BME280;61064;51.654;5.476;2022-07-05T08:02:38;102263.88;;;21.01;61.00
72921;BME280;61064;51.654;5.476;2022-07-05T08:05:04;102254.84;;;21.00;61.04
72921;BME280;61064;51.654;5.476;2022-07-05T08:07:30;102269.16;;;21.08;61.34
72921;BME280;61064;51.654;5.476;2022-07-05T08:09:55;102269.13;;;21.10;61.32
72921;BME280;61064;51.654;5.476;2022-07-05T08:12:21;102268.13;;;21.19;61.11
72921;BME280;61064;51.654;5.476;2022-07-05T08:14:46;102253.56;;;21.27;61.05
72921;BME280;61064;51.654;5.476;2022-07-05T08:17:12;102266.03;;;21.37;60.91
72921;BME280;61064;51.654;5.476;2022-07-05T08:19:38;102272.25;;;21.45;61.01
72921;BME280;61064;51.654;5.476;2022-07-05T08:22:22;102272.09;;;21.53;60.40
72921;BME280;61064;51.654;5.476;2022-07-05T08:24:48;102268.41;;;21.58;60.08
72921;BME280;61064;51.654;5.476;2022-07-05T08:27:14;102262.09;;;21.58;60.34
72921;BME280;61064;51.654;5.476;2022-07-05T08:29:40;102263.78;;;21.65;60.40
72921;BME280;61064;51.654;5.476;2022-07-05T08:32:06;102256.56;;;21.66;60.54
72921;BME280;61064;51.654;5.476;2022-07-05T08:34:31;102268.03;;;21.80;60.70
72921;BME280;61064;51.654;5.476;2022-07-05T08:36:57;102273.19;;;21.96;59.88
72921;BME280;61064;51.654;5.476;2022-07-05T08:39:22;102257.88;;;21.95;59.70
72921;BME280;61064;51.654;5.476;2022-07-05T08:41:50;102268.66;;;21.97;59.46
72921;BME280;61064;51.654;5.476;2022-07-05T08:44:18;102248.84;;;21.93;59.57
72921;BME280;61064;51.654;5.476;2022-07-05T08:46:44;102252.38;;;21.98;59.45
72921;BME280;61064;51.654;5.476;2022-07-05T08:49:10;102251.38;;;22.04;59.42
72921;BME280;61064;51.654;5.476;2022-07-05T08:51:39;102242.31;;;22.05;59.41
72921;BME280;61064;51.654;5.476;2022-07-05T08:54:04;102245.81;;;22.12;58.92
72921;BME280;61064;51.654;5.476;2022-07-05T08:56:30;102242.03;;;22.19;58.96
72921;BME280;61064;51.654;5.476;2022-07-05T08:58:56;102241.78;;;22.32;58.63
72921;BME280;61064;51.654;5.476;2022-07-05T09:01:22;102247.75;;;22.51;58.53
72921;BME280;61064;51.654;5.476;2022-07-05T09:03:50;102252.88;;;22.65;58.30
72921;BME280;61064;51.654;5.476;2022-07-05T09:06:21;102258.94;;;22.79;57.53
72921;BME280;61064;51.654;5.476;2022-07-05T09:08:48;102252.28;;;22.94;56.94
72921;BME280;61064;51.654;5.476;2022-07-05T09:11:15;102247.31;;;23.12;56.30
72921;BME280;61064;51.654;5.476;2022-07-05T09:13:43;102252.38;;;23.28;56.30
72921;BME280;61064;51.654;5.476;2022-07-05T09:16:09;102246.66;;;23.40;55.55
72921;BME280;61064;51.654;5.476;2022-07-05T09:18:51;102251.91;;;23.49;54.99
72921;BME280;61064;51.654;5.476;2022-07-05T09:21:25;102237.16;;;23.59;55.37
72921;BME280;61064;51.654;5.476;2022-07-05T09:23:56;102255.56;;;23.82;54.57
72921;BME280;61064;51.654;5.476;2022-07-05T09:26:35;102254.28;;;23.96;52.92
72921;BME280;61064;51.654;5.476;2022-07-05T09:29:06;102256.03;;;23.99;52.76
72921;BME280;61064;51.654;5.476;2022-07-05T09:31:36;102241.78;;;23.89;52.25
72921;BME280;61064;51.654;5.476;2022-07-05T09:34:17;102253.94;;;23.75;52.31
72921;BME280;61064;51.654;5.476;2022-07-05T09:39:14;102254.16;;;23.67;51.63
72921;BME280;61064;51.654;5.476;2022-07-05T09:41:39;102254.34;;;23.59;51.57
72921;BME280;61064;51.654;5.476;2022-07-05T09:44:05;102252.66;;;23.55;52.14
72921;BME280;61064;51.654;5.476;2022-07-05T09:46:31;102244.53;;;23.54;52.02
72921;BME280;61064;51.654;5.476;2022-07-05T09:48:56;102259.81;;;23.58;52.07
72921;BME280;61064;51.654;5.476;2022-07-05T09:51:21;102257.09;;;23.58;51.62
72921;BME280;61064;51.654;5.476;2022-07-05T09:53:49;102254.31;;;23.61;51.47
72921;BME280;61064;51.654;5.476;2022-07-05T09:56:14;102243.00;;;23.78;51.49
72921;BME280;61064;51.654;5.476;2022-07-05T09:58:40;102238.84;;;23.97;51.15
72921;BME280;61064;51.654;5.476;2022-07-05T10:01:29;102235.78;;;24.11;50.80
72921;BME280;61064;51.654;5.476;2022-07-05T10:03:56;102242.88;;;24.18;50.43
72921;BME280;61064;51.654;5.476;2022-07-05T10:06:24;102248.22;;;24.21;50.68
72921;BME280;61064;51.654;5.476;2022-07-05T10:08:50;102245.41;;;24.24;49.27
72921;BME280;61064;51.654;5.476;2022-07-05T10:11:17;102237.25;;;24.24;49.62
72921;BME280;61064;51.654;5.476;2022-07-05T10:13:45;102238.22;;;24.21;48.60
72921;BME280;61064;51.654;5.476;2022-07-05T10:16:13;102249.19;;;24.17;48.83
72921;BME280;61064;51.654;5.476;2022-07-05T10:18:40;102237.47;;;24.15;48.44
72921;BME280;61064;51.654;5.476;2022-07-05T10:21:12;102247.44;;;24.14;48.40
72921;BME280;61064;51.654;5.476;2022-07-05T10:23:38;102246.56;;;24.14;48.42
72921;BME280;61064;51.654;5.476;2022-07-05T10:26:08;102237.56;;;24.12;48.65
72921;BME280;61064;51.654;5.476;2022-07-05T10:28:34;102247.06;;;24.29;48.53
72921;BME280;61064;51.654;5.476;2022-07-05T10:31:01;102246.59;;;24.46;47.99
72921;BME280;61064;51.654;5.476;2022-07-05T10:33:26;102252.41;;;24.63;47.38
72921;BME280;61064;51.654;5.476;2022-07-05T10:35:55;102250.06;;;24.80;47.12
72921;BME280;61064;51.654;5.476;2022-07-05T10:38:21;102241.41;;;24.97;46.79
72921;BME280;61064;51.654;5.476;2022-07-05T10:40:55;102232.84;;;25.11;46.92
72921;BME280;61064;51.654;5.476;2022-07-05T10:43:22;102237.06;;;25.19;47.58
72921;BME280;61064;51.654;5.476;2022-07-05T10:45:51;102234.78;;;25.35;46.50
72921;BME280;61064;51.654;5.476;2022-07-05T10:48:27;102234.41;;;25.46;45.75
72921;BME280;61064;51.654;5.476;2022-07-05T10:53:27;102249.91;;;25.72;45.44
72921;BME280;61064;51.654;5.476;2022-07-05T10:56:14;102245.19;;;25.77;45.76
72921;BME280;61064;51.654;5.476;2022-07-05T10:58:47;102239.00;;;25.72;45.83
72921;BME280;61064;51.654;5.476;2022-07-05T11:03:47;102254.06;;;25.55;45.82
72921;BME280;61064;51.654;5.476;2022-07-05T11:06:26;102253.56;;;25.43;46.09
72921;BME280;61064;51.654;5.476;2022-07-05T11:11:38;102265.03;;;25.26;46.16
72921;BME280;61064;51.654;5.476;2022-07-05T11:19:53;102253.69;;;24.81;46.49
72921;BME280;61064;51.654;5.476;2022-07-05T11:22:20;102255.06;;;24.66;46.66
72921;BME280;61064;51.654;5.476;2022-07-05T11:24:46;102247.38;;;24.50;46.70
72921;BME280;61064;51.654;5.476;2022-07-05T11:27:12;102252.22;;;24.40;46.75
72921;BME280;61064;51.654;5.476;2022-07-05T11:32:16;102257.22;;;24.23;47.25
72921;BME280;61064;51.654;5.476;2022-07-05T11:34:44;102242.78;;;24.21;47.61
72921;BME280;61064;51.654;5.476;2022-07-05T11:39:46;102238.31;;;24.49;46.52
72921;BME280;61064;51.654;5.476;2022-07-05T11:42:23;102239.97;;;24.55;47.18
72921;BME280;61064;51.654;5.476;2022-07-05T11:44:52;102230.44;;;24.69;46.43
72921;BME280;61064;51.654;5.476;2022-07-05T11:47:20;102232.75;;;24.83;45.26
72921;BME280;61064;51.654;5.476;2022-07-05T11:49:57;102231.84;;;24.84;44.70
72921;BME280;61064;51.654;5.476;2022-07-05T11:52:31;102242.81;;;24.81;44.26
72921;BME280;61064;51.654;5.476;2022-07-05T11:54:58;102232.81;;;24.81;44.39
72921;BME280;61064;51.654;5.476;2022-07-05T11:57:24;102239.28;;;24.77;44.29
72921;BME280;61064;51.654;5.476;2022-07-05T11:59:53;102229.66;;;24.66;44.25
72921;BME280;61064;51.654;5.476;2022-07-05T12:02:19;102232.75;;;24.54;44.07
72921;BME280;61064;51.654;5.476;2022-07-05T12:07:33;102235.78;;;24.43;45.35
72921;BME280;61064;51.654;5.476;2022-07-05T12:10:00;102232.88;;;24.49;44.68
72921;BME280;61064;51.654;5.476;2022-07-05T12:12:44;102219.75;;;24.63;44.59
72921;BME280;61064;51.654;5.476;2022-07-05T12:15:15;102224.63;;;24.81;43.83
72921;BME280;61064;51.654;5.476;2022-07-05T12:17:43;102220.06;;;24.83;43.53
72921;BME280;61064;51.654;5.476;2022-07-05T12:20:11;102240.03;;;24.82;43.79
72921;BME280;61064;51.654;5.476;2022-07-05T12:22:41;102238.69;;;24.68;44.45
72921;BME280;61064;51.654;5.476;2022-07-05T12:25:10;102220.94;;;24.55;44.63
72921;BME280;61064;51.654;5.476;2022-07-05T12:27:38;102232.88;;;24.49;45.04
72921;BME280;61064;51.654;5.476;2022-07-05T12:30:05;102237.38;;;24.52;44.54
72921;BME280;61064;51.654;5.476;2022-07-05T12:32:31;102235.28;;;24.60;44.53
72921;BME280;61064;51.654;5.476;2022-07-05T12:34:57;102225.72;;;24.76;44.14
72921;BME280;61064;51.654;5.476;2022-07-05T12:37:24;102217.88;;;24.96;43.67
72921;BME280;61064;51.654;5.476;2022-07-05T12:39:50;102223.66;;;25.13;43.27
72921;BME280;61064;51.654;5.476;2022-07-05T12:42:34;102240.53;;;25.24;43.66
72921;BME280;61064;51.654;5.476;2022-07-05T12:45:14;102243.25;;;25.24;43.67
72921;BME280;61064;51.654;5.476;2022-07-05T12:47:53;102233.69;;;25.13;43.97
72921;BME280;61064;51.654;5.476;2022-07-05T12:50:23;102247.34;;;25.11;44.42
72921;BME280;61064;51.654;5.476;2022-07-05T12:53:05;102236.13;;;25.20;43.97
72921;BME280;61064;51.654;5.476;2022-07-05T12:56:01;102229.03;;;25.43;44.06
72921;BME280;61064;51.654;5.476;2022-07-05T12:58:55;102230.94;;;25.69;43.83
72921;BME280;61064;51.654;5.476;2022-07-05T13:01:28;102230.19;;;25.90;43.37
72921;BME280;61064;51.654;5.476;2022-07-05T13:04:11;102233.84;;;25.89;43.38
72921;BME280;61064;51.654;5.476;2022-07-05T13:06:45;102238.63;;;25.82;43.22
72921;BME280;61064;51.654;5.476;2022-07-05T13:09:13;102238.22;;;25.68;42.95
72921;BME280;61064;51.654;5.476;2022-07-05T13:11:39;102245.31;;;25.46;43.09
72921;BME280;61064;51.654;5.476;2022-07-05T13:14:05;102250.47;;;25.27;43.50
72921;BME280;61064;51.654;5.476;2022-07-05T13:16:30;102246.41;;;25.12;43.35